Thursday, April 19, 2018, 5:16 PM EDT
Back to Local

KAOO, Altoona-blair County Airport

Location: Martinsburg, PA, United States Lat: 40.3
Local Time: 5:16 PM EDT (21:16 GMT) Lon: -78.317
Time Zone: US/Eastern Elev: 1502 ft

Show me the last for .
Show Decoded

2018-04-19 16:53 METAR KAOO 192053Z AUTO 30014G21KT 10SM BKN029 OVC035 03/M03 A3001 RMK AO2 PK
                 WND 31027/1956 SLPNO T00281033 51015 =
2018-04-19 16:49 METAR KAOO 192049Z AUTO 30013G21KT 10SM BKN029 OVC035 03/M03 A3001 RMK AO2 PK
                 WND 31027/1956 =
2018-04-19 16:29 METAR KAOO 192029Z AUTO 31015G23KT 10SM BKN030 OVC036 03/M04 A3000 RMK AO2 PK
                 WND 31027/1956 T00281039 =
2018-04-19 15:53 METAR KAOO 191953Z AUTO 31015G23KT 10SM BKN025 OVC030 03/M03 A2999 RMK AO2 PK
                 WND 31026/1915 SLPNO T00281033 =
2018-04-19 14:53 METAR KAOO 191853Z AUTO 32013G26KT 10SM BKN029 OVC036 03/M04 A2997 RMK AO2 PK
                 WND 31032/1814 SLPNO T00281039 =
2018-04-19 14:31 METAR KAOO 191831Z AUTO 30020G29KT 10SM FEW026 BKN033 OVC042 03/M04 A2995 RMK
                 AO2 PK WND 31032/1814 T00331039 =
2018-04-19 13:53 METAR KAOO 191753Z AUTO 32015G25KT 9SM BKN021 OVC030 03/M02 A2993 RMK AO2 PK WND
                 29029/1707 RAE1658B16E26SNB1658E07B26E52 SLP143 P0000 60002 T00281022 10067
                 20028 53023 =
2018-04-19 13:36 METAR KAOO 191736Z AUTO 33017G26KT 8SM -SN FEW016 BKN029 OVC055 03/M01 A2992 RMK
                 AO2 PK WND 29029/1707 RAE1658B16E26SNB1658E07B26 P0000 T00331011 =
2018-04-19 13:11 METAR KAOO 191711Z AUTO 29019G29KT 9SM FEW014 BKN035 OVC050 04/M02 A2990 RMK AO2
                 PK WND 29029/1707 RAE1658SNB1658E07 P0000 T00391017 =
2018-04-19 13:03 METAR KAOO 191703Z AUTO 31017G26KT 3SM -SN FEW014 BKN029 OVC055 04/00 A2989 RMK
                 AO2 PK WND 32026/1701 RAE1658SNB1658 P0000 T00390000 =
2018-04-19 12:59 METAR KAOO 191659Z AUTO 31015G28KT 2 1/2SM -SN FEW014 BKN031 OVC050 03/00 A2989
                 RMK AO2 VIS 1 1/4V5 RAE58SNB58 P0000 T00330000 =
2018-04-19 12:53 METAR KAOO 191653Z AUTO 30021G28KT 5SM -RA FEW018 BKN026 BKN035 04/M01 A2988 RMK
                 AO2 PK WND 30028/1652 RAB53 SLP128 P0000 T00441011 =
2018-04-19 12:50 METAR KAOO 191650Z AUTO 32016G25KT 10SM SCT024 BKN038 OVC047 04/M02 A2988 RMK
                 AO2 PK WND 30027/1636 =
2018-04-19 11:53 METAR KAOO 191553Z AUTO 31013KT 10SM FEW017 BKN022 OVC037 04/00 A2985 RMK AO2 PK
                 WND 30027/1519 SLP117 T00390000 $ =
2018-04-19 11:51 METAR KAOO 191551Z AUTO 31014KT 10SM FEW017 BKN028 OVC038 04/00 A2985 RMK AO2 PK
                 WND 30027/1519 $ =
2018-04-19 11:30 METAR KAOO 191530Z AUTO 31016G26KT 10SM SCT017 SCT032 OVC043 04/00 A2984 RMK AO2
                 PK WND 30027/1519 T00440000 $ =
2018-04-19 10:53 METAR KAOO 191453Z AUTO 30015G20KT 10SM BKN015 OVC023 04/01 A2981 RMK AO2 RAE44
                 SLP100 P0000 60002 T00440006 53036 $ =
2018-04-19 09:53 METAR KAOO 191353Z AUTO 33012KT 10SM -RA SCT016 BKN022 OVC060 04/02 A2976 RMK
                 AO2 RAE1254B20 SLP084 P0001 T00440017 $ =
2018-04-19 09:30 METAR KAOO 191330Z AUTO 32011KT 9SM -RA FEW008 BKN017 OVC026 05/02 A2975 RMK AO2
                 RAE1254B20 P0001 T00500022 $ =
2018-04-19 08:53 METAR KAOO 191253Z AUTO 01011KT 4SM -RA BR OVC005 06/03 A2972 RMK AO2 SLP067
                 P0001 T00560033 $ =
2018-04-19 08:39 METAR KAOO 191239Z AUTO 01007KT 2SM -RA BR BKN005 OVC008 06/04 A2971 RMK AO2 CIG
                 002V006 P0001 T00560039 $ =
2018-04-19 08:26 METAR KAOO 191226Z AUTO 36006KT 1SM -RA BR OVC005 06/04 A2970 RMK AO2 CIG
                 002V009 P0001 T00610044 $ =
2018-04-19 08:24 METAR KAOO 191224Z AUTO 36005KT 3/4SM -RA BR BKN003 OVC007 06/04 A2970 RMK AO2
                 P0001 T00610044 $ =
2018-04-19 08:07 METAR KAOO 191207Z AUTO 32004KT 1 3/4SM -RA BR OVC008 07/04 A2970 RMK AO2 CIG
                 005V010 P0000 T00670044 $ =
2018-04-19 07:53 METAR KAOO 191153Z AUTO 31003KT 2 1/2SM -RA BR OVC009 07/05 A2970 RMK AO2 RAB50
                 SLP059 P0000 6//// 7//// T00670050 53013 $ =
2018-04-19 06:53 METAR KAOO 191053Z AUTO 00000KT 5SM BR OVC012 06/05 A2967 RMK AO2 SLP051
                 T00610050 $ =
2018-04-19 06:37 METAR KAOO 191037Z AUTO 00000KT 5SM BR OVC013 06/04 A2966 RMK AO2 T00610044 $ =
2018-04-19 05:53 METAR KAOO 190953Z AUTO 00000KT 6SM BR OVC019 06/04 A2964 RMK AO2 SLP041
                 T00610044 $ =
2018-04-19 05:46 METAR KAOO 190946Z AUTO 00000KT 5SM BR OVC019 06/05 A2965 RMK AO2 T00610050 $ =
2018-04-19 04:53 METAR KAOO 190853Z AUTO A2965 RMK AO2 SLPNO 6//// 58017 PWINO FZRANO $ =
2018-04-19 03:53 METAR KAOO 190753Z AUTO A2967 RMK AO2 SLPNO PWINO FZRANO $ =
2018-04-19 02:53 METAR KAOO 190653Z AUTO A2971 RMK AO2 RAEMM SLPNO P0003 PWINO FZRANO $ =
2018-04-19 01:53 METAR KAOO 190553Z AUTO 02004KT 6SM -RA FEW038 BKN048 OVC060 07/04 A2971 RMK AO2
                 SLP065 P0007 60011 T00670039 10111 20067 53008 =
2018-04-19 00:53 METAR KAOO 190453Z AUTO 36010KT 5SM RA OVC040 07/03 A2969 RMK AO2 RAB09 PRESRR
                 SLP059 P0004 T00720028 401330000 =
2018-04-18 23:53 METAR KAOO 190353Z AUTO 06004KT 10SM OVC041 09/03 A2965 RMK AO2 RAB0255E17
                 SLP048 P0000 T00890028 =
2018-04-18 22:53 METAR KAOO 190253Z AUTO 00000KT 10SM BKN060 OVC080 10/02 A2968 RMK AO2 PRESFR
                 SLP058 60000 T01000017 58014 =
2018-04-18 21:53 METAR KAOO 190153Z AUTO 11003KT 10SM BKN036 BKN075 OVC100 10/02 A2973 RMK AO2
                 RAB0056E06 SLP074 P0000 T01000022 =
2018-04-18 20:53 METAR KAOO 190053Z AUTO 03004KT 10SM OVC041 11/02 A2973 RMK AO2 RAB50E52 SLP075
                 P0000 T01060017 =
2018-04-18 19:53 METAR KAOO 182353Z AUTO 07004KT 10SM OVC055 11/02 A2972 RMK AO2 SLP073 T01110022
                 10133 20078 58009 =
2018-04-18 18:53 METAR KAOO 182253Z AUTO 07003KT 10SM SCT045 OVC060 12/01 A2974 RMK AO2 SLP076
                 T01220006 =
2018-04-18 17:53 METAR KAOO 182153Z AUTO 00000KT 10SM FEW046 BKN070 12/M01 A2975 RMK AO2 SLP081
                 T01221006 =

Support USWX by starting your Amazon purchase here.